createdAt,value
2018-07-20T00:01:36.811Z,6.70
2018-07-20T00:04:05.472Z,6.60
2018-07-20T00:06:34.149Z,6.60
2018-07-20T00:09:03.110Z,6.43
2018-07-20T00:11:31.759Z,6.17
2018-07-20T00:14:00.399Z,6.43
2018-07-20T00:16:29.038Z,5.90
2018-07-20T00:18:57.711Z,6.33
2018-07-20T00:21:26.184Z,6.80
2018-07-20T00:23:54.671Z,5.90
2018-07-20T00:26:23.231Z,6.43
2018-07-20T00:28:51.889Z,6.10
2018-07-20T00:31:20.508Z,6.50
2018-07-20T00:33:48.918Z,6.37
2018-07-20T00:36:17.529Z,6.73
2018-07-20T00:38:46.128Z,6.53
2018-07-20T00:41:14.791Z,6.17
2018-07-20T00:43:43.358Z,6.13
2018-07-20T00:46:11.933Z,6.53
2018-07-20T00:48:40.511Z,6.10
2018-07-20T00:51:09.121Z,6.20
2018-07-20T00:53:37.736Z,6.17
2018-07-20T00:56:06.486Z,6.00
2018-07-20T00:58:35.116Z,6.17
2018-07-20T01:01:03.821Z,6.33
2018-07-20T01:03:32.504Z,6.60
2018-07-20T01:06:00.926Z,6.83
2018-07-20T01:08:29.519Z,6.90
2018-07-20T01:10:58.144Z,7.30
2018-07-20T01:13:26.754Z,7.50
2018-07-20T01:15:55.341Z,7.50
2018-07-20T01:18:24.003Z,7.37
2018-07-20T01:20:52.473Z,6.87
2018-07-20T01:23:21.073Z,8.20
2018-07-20T01:25:49.525Z,8.40
2018-07-20T01:28:18.126Z,8.80
2018-07-20T01:30:46.553Z,9.10
2018-07-20T01:33:15.240Z,8.50
2018-07-20T01:35:43.864Z,8.30
2018-07-20T01:38:12.550Z,9.07
2018-07-20T01:40:41.225Z,8.20
2018-07-20T01:43:09.990Z,8.83
2018-07-20T01:45:38.685Z,8.20
2018-07-20T01:48:07.370Z,8.10
2018-07-20T01:50:35.998Z,8.27
2018-07-20T01:53:04.773Z,8.20
2018-07-20T01:55:33.204Z,8.47
2018-07-20T01:58:01.815Z,8.20
2018-07-20T02:00:30.426Z,7.37
2018-07-20T02:03:00.746Z,7.53
2018-07-20T02:05:29.350Z,7.40
2018-07-20T02:07:57.930Z,7.03
2018-07-20T02:10:26.594Z,7.40
2018-07-20T02:12:55.031Z,8.03
2018-07-20T02:15:23.686Z,8.17
2018-07-20T02:17:52.430Z,8.00
2018-07-20T02:20:21.122Z,8.00
2018-07-20T02:22:49.729Z,8.67
2018-07-20T02:25:18.378Z,9.03
2018-07-20T02:27:46.986Z,8.23
2018-07-20T02:30:15.413Z,8.03
2018-07-20T02:32:44.053Z,8.43
2018-07-20T02:35:12.686Z,8.20
2018-07-20T02:37:41.308Z,8.17
2018-07-20T02:40:09.905Z,8.33
2018-07-20T02:42:38.498Z,8.60
2018-07-20T02:45:07.238Z,8.33
2018-07-20T02:47:35.853Z,8.30
2018-07-20T02:50:04.336Z,8.20
2018-07-20T02:52:32.766Z,8.43
2018-07-20T02:55:01.554Z,8.50
2018-07-20T02:57:30.183Z,7.97
2018-07-20T02:59:58.823Z,7.60
2018-07-20T03:02:27.443Z,8.43
2018-07-20T03:04:56.130Z,9.03
2018-07-20T03:07:24.654Z,8.93
2018-07-20T03:09:53.336Z,8.83
2018-07-20T03:12:21.944Z,9.40
2018-07-20T03:14:50.658Z,8.97
2018-07-20T03:17:19.142Z,8.20
2018-07-20T03:19:47.771Z,8.43
2018-07-20T03:22:16.451Z,8.70
2018-07-20T03:24:45.132Z,8.83
2018-07-20T03:27:13.765Z,9.27
2018-07-20T03:29:42.571Z,8.70
2018-07-20T03:32:11.218Z,8.70
2018-07-20T03:34:39.806Z,8.40
2018-07-20T03:37:08.470Z,9.00
2018-07-20T03:39:37.044Z,9.13
2018-07-20T03:42:05.822Z,9.70
2018-07-20T03:44:34.301Z,9.47
2018-07-20T03:47:03.011Z,8.53
2018-07-20T03:49:31.658Z,9.37
2018-07-20T03:52:00.113Z,9.10
2018-07-20T03:54:28.796Z,8.47
2018-07-20T03:56:57.496Z,8.50
2018-07-20T03:59:26.116Z,9.17
2018-07-20T04:01:54.746Z,8.90
2018-07-20T04:04:23.424Z,8.60
2018-07-20T04:06:52.044Z,8.67
2018-07-20T04:09:20.486Z,8.60
2018-07-20T04:11:49.106Z,8.60
2018-07-20T04:14:17.793Z,8.67
2018-07-20T04:16:46.335Z,8.13
2018-07-20T04:19:15.047Z,7.87
2018-07-20T04:21:43.665Z,7.60
2018-07-20T04:24:12.371Z,7.23
2018-07-20T04:26:40.979Z,7.43
2018-07-20T04:29:09.638Z,7.47
2018-07-20T04:31:38.333Z,7.80
2018-07-20T04:34:06.926Z,6.83
2018-07-20T04:36:35.611Z,7.40
2018-07-20T04:39:07.991Z,7.00
2018-07-20T04:41:36.686Z,7.13
2018-07-20T04:44:05.473Z,6.97
2018-07-20T04:46:34.211Z,7.07
2018-07-20T04:49:03.009Z,7.07
2018-07-20T04:51:31.931Z,7.60
2018-07-20T04:54:00.593Z,7.00
2018-07-20T04:56:29.280Z,7.60
2018-07-20T04:58:57.973Z,7.30
2018-07-20T05:01:26.678Z,7.30
2018-07-20T05:03:55.335Z,14.90
2018-07-20T05:06:24.009Z,52.00
2018-07-20T05:08:52.626Z,11.83
2018-07-20T05:11:21.403Z,24.57
2018-07-20T05:13:49.966Z,29.47
2018-07-20T05:16:18.703Z,24.37
2018-07-20T05:18:47.371Z,20.03
2018-07-20T05:21:16.018Z,13.40
2018-07-20T05:23:44.730Z,13.00
2018-07-20T05:26:13.505Z,9.73
2018-07-20T05:28:42.148Z,8.50
2018-07-20T05:31:10.964Z,6.87
2018-07-20T05:33:39.697Z,7.67
2018-07-20T05:36:08.443Z,7.77
2018-07-20T05:38:37.201Z,7.50
2018-07-20T05:41:05.978Z,7.17
2018-07-20T05:43:34.678Z,6.57
2018-07-20T05:46:03.551Z,6.80
2018-07-20T05:48:32.024Z,6.87
2018-07-20T05:51:00.731Z,6.40
2018-07-20T05:53:29.415Z,6.20
2018-07-20T05:55:58.039Z,6.77
2018-07-20T05:58:26.856Z,5.80
2018-07-20T06:00:55.568Z,6.10
2018-07-20T06:03:24.129Z,6.20
2018-07-20T06:05:52.821Z,6.40
2018-07-20T06:08:21.410Z,6.57
2018-07-20T06:10:49.889Z,5.93
2018-07-20T06:13:18.355Z,5.60
2018-07-20T06:15:46.991Z,5.55
2018-07-20T06:18:15.720Z,6.00
2018-07-20T06:20:44.396Z,5.92
2018-07-20T06:23:13.071Z,5.62
2018-07-20T06:25:41.783Z,6.20
2018-07-20T06:28:10.493Z,6.15
2018-07-20T06:30:39.143Z,6.43
2018-07-20T06:33:07.845Z,6.42
2018-07-20T06:35:36.471Z,6.65
2018-07-20T06:38:05.149Z,6.20
2018-07-20T06:40:33.861Z,5.92
2018-07-20T06:43:02.677Z,5.70
2018-07-20T06:45:31.503Z,6.00
2018-07-20T06:48:00.143Z,6.00
2018-07-20T06:50:28.650Z,5.33
2018-07-20T06:52:57.398Z,5.80
2018-07-20T06:55:26.250Z,5.58
2018-07-20T06:57:54.923Z,5.90
2018-07-20T07:00:23.562Z,5.95
2018-07-20T07:02:52.301Z,5.90
2018-07-20T07:05:21.003Z,6.25
2018-07-20T07:07:50.193Z,6.75
2018-07-20T07:10:19.086Z,5.60
2018-07-20T07:12:47.753Z,6.15
2018-07-20T07:15:16.560Z,5.65
2018-07-20T07:17:45.430Z,5.37
2018-07-20T07:20:14.650Z,5.78
2018-07-20T07:22:43.795Z,5.80
2018-07-20T07:25:13.464Z,5.50
2018-07-20T07:27:42.158Z,5.53
2018-07-20T07:30:10.863Z,5.35
2018-07-20T07:32:40.205Z,5.17
2018-07-20T07:35:09.043Z,5.15
2018-07-20T07:37:37.651Z,5.53
2018-07-20T07:40:06.481Z,4.87
2018-07-20T07:42:35.096Z,5.00
2018-07-20T07:45:04.656Z,4.90
2018-07-20T07:47:33.605Z,5.17
2018-07-20T07:50:02.296Z,5.08
2018-07-20T07:52:30.965Z,5.08
2018-07-20T07:54:59.698Z,4.85
2018-07-20T07:57:28.305Z,4.58
2018-07-20T07:59:56.983Z,4.78
2018-07-20T08:02:25.633Z,4.90
2018-07-20T08:04:54.323Z,5.03
2018-07-20T08:07:23.031Z,4.90
2018-07-20T08:09:52.355Z,4.70
2018-07-20T08:12:21.083Z,5.10
2018-07-20T08:14:49.702Z,4.60
2018-07-20T08:17:18.412Z,4.72
2018-07-20T08:19:47.176Z,4.97
2018-07-20T08:22:15.820Z,4.58
2018-07-20T08:24:44.902Z,4.17
2018-07-20T08:27:13.754Z,4.00
2018-07-20T08:29:42.501Z,4.00
2018-07-20T08:32:11.364Z,4.25
2018-07-20T08:34:40.113Z,4.10
2018-07-20T08:37:08.820Z,4.28
2018-07-20T08:39:37.434Z,4.00
2018-07-20T08:42:06.903Z,4.30
2018-07-20T08:44:35.651Z,4.08
2018-07-20T08:47:04.538Z,3.85
2018-07-20T08:49:33.315Z,4.00
2018-07-20T08:52:02.111Z,4.03
2018-07-20T08:54:30.774Z,4.08
2018-07-20T08:56:59.498Z,4.30
2018-07-20T08:59:28.198Z,4.75
2018-07-20T09:01:56.919Z,4.30
2018-07-20T09:04:25.629Z,4.60
2018-07-20T09:06:54.436Z,4.65
2018-07-20T09:09:23.211Z,4.58
2018-07-20T09:11:51.918Z,4.60
2018-07-20T09:14:20.343Z,4.45
2018-07-20T09:16:49.024Z,4.67
2018-07-20T09:19:17.667Z,4.15
2018-07-20T09:21:46.615Z,4.37
2018-07-20T09:24:15.294Z,4.37
2018-07-20T09:26:43.953Z,4.17
2018-07-20T09:29:12.607Z,4.97
2018-07-20T09:31:41.351Z,4.35
2018-07-20T09:34:10.146Z,4.42
2018-07-20T09:36:38.779Z,4.05
2018-07-20T09:39:09.093Z,4.35
2018-07-20T09:41:37.941Z,4.90
2018-07-20T09:44:06.817Z,3.80
2018-07-20T09:46:35.486Z,4.05
2018-07-20T09:49:04.268Z,4.25
2018-07-20T09:51:33.023Z,4.37
2018-07-20T09:54:01.716Z,4.35
2018-07-20T09:56:30.460Z,4.22
2018-07-20T09:58:59.123Z,4.08
2018-07-20T10:01:27.813Z,4.25
2018-07-20T10:03:56.615Z,4.72
2018-07-20T10:06:25.961Z,4.58
2018-07-20T10:08:54.632Z,4.78
2018-07-20T10:11:23.440Z,4.25
2018-07-20T10:13:52.310Z,4.67
2018-07-20T10:16:21.026Z,4.55
2018-07-20T10:18:49.746Z,3.95
2018-07-20T10:21:18.517Z,4.12
2018-07-20T10:23:47.169Z,4.53
2018-07-20T10:26:16.046Z,4.20
2018-07-20T10:28:44.908Z,4.42
2018-07-20T10:31:13.609Z,4.40
2018-07-20T10:33:42.352Z,4.17
2018-07-20T10:36:11.613Z,3.95
2018-07-20T10:38:40.291Z,4.20
2018-07-20T10:41:08.961Z,4.10
2018-07-20T10:43:37.571Z,4.25
2018-07-20T10:46:06.375Z,3.90
2018-07-20T10:48:35.234Z,4.10
2018-07-20T10:51:03.876Z,4.30
2018-07-20T10:53:32.731Z,3.87
2018-07-20T10:56:01.376Z,4.30
2018-07-20T10:58:30.024Z,4.40
2018-07-20T11:00:59.440Z,4.25
2018-07-20T11:03:28.123Z,3.98
2018-07-20T11:05:56.759Z,4.30
2018-07-20T11:08:25.577Z,4.20
2018-07-20T11:10:54.446Z,4.30
2018-07-20T11:13:22.969Z,4.03
2018-07-20T11:15:51.728Z,3.87
2018-07-20T11:18:20.320Z,3.47
2018-07-20T11:20:49.009Z,4.00
2018-07-20T11:23:17.806Z,4.08
2018-07-20T11:25:46.472Z,4.00
2018-07-20T11:28:15.281Z,4.50
2018-07-20T11:30:44.013Z,4.05
2018-07-20T11:33:12.955Z,4.30
2018-07-20T11:35:43.696Z,3.92
2018-07-20T11:38:12.480Z,4.15
2018-07-20T11:40:41.262Z,4.00
2018-07-20T11:43:10.131Z,4.10
2018-07-20T11:45:38.965Z,4.20
2018-07-20T11:48:07.866Z,4.30
2018-07-20T11:50:36.543Z,4.05
2018-07-20T11:53:05.341Z,4.20
2018-07-20T11:55:34.146Z,4.33
2018-07-20T11:58:03.058Z,4.30
2018-07-20T12:00:31.793Z,4.03
2018-07-20T12:03:00.490Z,4.10
2018-07-20T12:05:29.213Z,4.25
2018-07-20T12:07:57.723Z,4.15
2018-07-20T12:10:26.433Z,4.40
2018-07-20T12:12:55.115Z,3.98
2018-07-20T12:15:23.901Z,4.78
2018-07-20T12:17:52.703Z,3.85
2018-07-20T12:20:21.442Z,4.00
2018-07-20T12:22:50.196Z,4.12
2018-07-20T12:25:19.363Z,4.10
2018-07-20T12:27:48.062Z,4.08
2018-07-20T12:30:16.820Z,4.55
2018-07-20T12:32:45.582Z,3.90
2018-07-20T12:35:14.460Z,4.00
2018-07-20T12:37:42.944Z,4.30
2018-07-20T12:40:12.561Z,4.40
2018-07-20T12:42:41.361Z,4.15
2018-07-20T12:45:10.037Z,3.92
2018-07-20T12:47:38.736Z,4.10
2018-07-20T12:50:07.580Z,4.30
2018-07-20T12:52:36.561Z,4.28
2018-07-20T12:55:05.272Z,4.20
2018-07-20T12:57:33.958Z,3.67
2018-07-20T13:00:04.272Z,4.08
2018-07-20T13:02:32.963Z,3.92
2018-07-20T13:05:01.638Z,3.87
2018-07-20T13:07:30.306Z,3.98
2018-07-20T13:09:58.989Z,3.87
2018-07-20T13:12:27.688Z,4.00
2018-07-20T13:14:56.381Z,4.05
2018-07-20T13:17:25.246Z,3.85
2018-07-20T13:19:54.526Z,4.08
2018-07-20T13:22:23.146Z,4.08
2018-07-20T13:24:52.021Z,3.95
2018-07-20T13:27:20.658Z,3.70
2018-07-20T13:29:50.271Z,3.80
2018-07-20T13:32:18.929Z,3.62
2018-07-20T13:34:47.650Z,3.92
2018-07-20T13:37:16.354Z,3.60
2018-07-20T13:39:45.071Z,3.75
2018-07-20T13:42:13.793Z,3.90
2018-07-20T13:44:42.598Z,3.77
2018-07-20T13:47:12.128Z,4.17
2018-07-20T13:49:41.589Z,3.70
2018-07-20T13:52:11.406Z,3.98
2018-07-20T13:54:40.116Z,3.70
2018-07-20T13:57:08.776Z,4.10
2018-07-20T13:59:37.435Z,4.12
2018-07-20T14:02:07.287Z,3.77
2018-07-20T14:04:36.138Z,3.80
2018-07-20T14:07:05.196Z,3.90
2018-07-20T14:09:33.996Z,3.90
2018-07-20T14:12:02.766Z,3.85
2018-07-20T14:14:31.722Z,4.05
2018-07-20T14:17:00.691Z,3.90
2018-07-20T14:19:29.387Z,3.92
2018-07-20T14:21:58.223Z,3.90
2018-07-20T14:24:27.218Z,3.70
2018-07-20T14:26:55.926Z,4.10
2018-07-20T14:29:24.644Z,4.40
2018-07-20T14:31:53.312Z,4.17
2018-07-20T14:34:21.931Z,3.90
2018-07-20T14:36:50.768Z,3.98
2018-07-20T14:39:19.436Z,4.10
2018-07-20T14:41:48.131Z,3.62
2018-07-20T14:44:16.716Z,3.95
2018-07-20T14:46:45.358Z,4.12
2018-07-20T14:49:14.062Z,4.17
2018-07-20T14:51:43.766Z,4.20
2018-07-20T14:54:12.436Z,4.90
2018-07-20T14:56:41.028Z,4.40
2018-07-20T14:59:09.695Z,4.35
2018-07-20T15:01:38.377Z,4.87
2018-07-20T15:04:07.973Z,4.53
2018-07-20T15:06:36.580Z,4.50
2018-07-20T15:09:07.636Z,4.50
2018-07-20T15:11:36.293Z,4.95
2018-07-20T15:14:05.798Z,4.50
2018-07-20T15:16:34.428Z,4.67
2018-07-20T15:19:03.138Z,4.53
2018-07-20T15:21:31.905Z,4.90
2018-07-20T15:24:00.609Z,4.70
2018-07-20T15:26:29.278Z,4.75
2018-07-20T15:28:58.083Z,4.83
2018-07-20T15:31:26.875Z,4.83
2018-07-20T15:33:55.707Z,4.95
2018-07-20T15:36:24.408Z,5.30
2018-07-20T15:38:53.088Z,5.50
2018-07-20T15:41:22.455Z,5.20
2018-07-20T15:43:51.103Z,5.22
2018-07-20T15:46:19.918Z,4.92
2018-07-20T15:48:48.517Z,5.40
2018-07-20T15:51:17.151Z,5.85
2018-07-20T15:53:46.750Z,5.53
2018-07-20T15:56:15.583Z,5.10
2018-07-20T15:58:44.237Z,5.00
2018-07-20T16:01:12.967Z,5.62
2018-07-20T16:03:41.462Z,5.20
2018-07-20T16:06:09.991Z,5.05
2018-07-20T16:08:38.690Z,4.78
2018-07-20T16:11:07.382Z,4.60
2018-07-20T16:13:36.167Z,5.35
2018-07-20T16:16:05.051Z,6.05
2018-07-20T16:18:33.793Z,5.80
2018-07-20T16:21:03.738Z,5.72
2018-07-20T16:23:33.981Z,4.92
2018-07-20T16:26:02.869Z,5.10
2018-07-20T16:28:32.283Z,4.65
2018-07-20T16:31:01.041Z,4.35
2018-07-20T16:33:29.796Z,4.45
2018-07-20T16:35:58.980Z,4.40
2018-07-20T16:38:27.536Z,4.45
2018-07-20T16:40:56.852Z,4.42
2018-07-20T16:43:25.566Z,4.17
2018-07-20T16:45:54.348Z,4.67
2018-07-20T16:48:23.043Z,4.70
2018-07-20T16:50:51.759Z,4.45
2018-07-20T16:53:21.114Z,4.35
2018-07-20T16:55:49.568Z,4.75
2018-07-20T16:58:18.243Z,4.30
2018-07-20T17:00:46.940Z,4.30
2018-07-20T17:03:15.591Z,4.70
2018-07-20T17:05:44.230Z,4.33
2018-07-20T17:08:12.768Z,4.58
2018-07-20T17:10:41.446Z,4.37
2018-07-20T17:13:10.075Z,4.25
2018-07-20T17:15:39.312Z,4.53
2018-07-20T17:18:08.014Z,4.10
2018-07-20T17:20:36.643Z,4.33
2018-07-20T17:23:05.376Z,4.67
2018-07-20T17:25:33.979Z,3.80
2018-07-20T17:28:02.654Z,4.25
2018-07-20T17:30:31.566Z,3.98
2018-07-20T17:33:00.339Z,4.62
2018-07-20T17:35:28.999Z,4.62
2018-07-20T17:37:58.668Z,4.50
2018-07-20T17:40:27.155Z,4.30
2018-07-20T17:42:55.594Z,4.50
2018-07-20T17:45:24.290Z,4.50
2018-07-20T17:47:52.967Z,4.40
2018-07-20T17:50:22.590Z,4.55
2018-07-20T17:52:51.334Z,4.30
2018-07-20T17:55:20.038Z,4.03
2018-07-20T17:57:48.761Z,4.58
2018-07-20T18:00:17.595Z,4.78
2018-07-20T18:02:46.366Z,4.15
2018-07-20T18:05:15.677Z,4.20
2018-07-20T18:07:44.364Z,4.58
2018-07-20T18:10:14.094Z,4.50
2018-07-20T18:12:42.859Z,3.90
2018-07-20T18:15:12.203Z,4.50
2018-07-20T18:17:41.035Z,4.10
2018-07-20T18:20:09.513Z,4.35
2018-07-20T18:22:38.733Z,4.40
2018-07-20T18:25:07.372Z,4.10
2018-07-20T18:27:36.361Z,4.35
2018-07-20T18:30:06.279Z,4.25
2018-07-20T18:32:34.981Z,4.40
2018-07-20T18:35:03.685Z,4.45
2018-07-20T18:37:33.298Z,4.40
2018-07-20T18:40:02.077Z,4.50
2018-07-20T18:42:30.756Z,4.40
2018-07-20T18:44:59.478Z,4.10
2018-07-20T18:47:28.871Z,4.62
2018-07-20T18:49:58.145Z,4.47
2018-07-20T18:52:27.365Z,4.10
2018-07-20T18:54:56.003Z,4.80
2018-07-20T18:57:24.721Z,5.00
2018-07-20T18:59:53.376Z,5.40
2018-07-20T19:02:22.070Z,5.47
2018-07-20T19:04:50.535Z,5.13
2018-07-20T19:07:19.178Z,4.80
2018-07-20T19:09:47.866Z,4.80
2018-07-20T19:12:16.490Z,4.70
2018-07-20T19:14:45.195Z,4.72
2018-07-20T19:17:15.090Z,4.70
2018-07-20T19:19:43.666Z,4.77
2018-07-20T19:22:12.348Z,4.70
2018-07-20T19:24:40.972Z,4.77
2018-07-20T19:27:09.606Z,4.90
2018-07-20T19:29:38.225Z,4.43
2018-07-20T19:32:07.048Z,4.60
2018-07-20T19:34:35.668Z,4.40
2018-07-20T19:37:04.438Z,4.37
2018-07-20T19:39:33.060Z,4.27
2018-07-20T19:42:02.442Z,4.60
2018-07-20T19:44:31.408Z,4.77
2018-07-20T19:47:00.086Z,4.33
2018-07-20T19:49:28.822Z,4.93
2018-07-20T19:51:57.515Z,4.67
2018-07-20T19:54:26.238Z,4.60
2018-07-20T19:56:54.891Z,5.00
2018-07-20T19:59:24.246Z,5.00
2018-07-20T20:01:53.069Z,4.90
2018-07-20T20:04:21.804Z,4.70
2018-07-20T20:06:50.343Z,4.93
2018-07-20T20:09:19.039Z,5.23
2018-07-20T20:11:47.798Z,5.20
2018-07-20T20:14:16.488Z,4.80
2018-07-20T20:16:45.249Z,5.00
2018-07-20T20:19:13.888Z,5.10
2018-07-20T20:21:42.594Z,5.13
2018-07-20T20:24:11.293Z,5.10
2018-07-20T20:26:39.989Z,4.90
2018-07-20T20:29:08.606Z,5.00
2018-07-20T20:31:37.298Z,5.57
2018-07-20T20:34:05.813Z,5.23
2018-07-20T20:36:34.516Z,5.40
2018-07-20T20:39:05.306Z,5.17
2018-07-20T20:41:33.912Z,5.10
2018-07-20T20:44:02.419Z,5.10
2018-07-20T20:46:31.196Z,4.83
2018-07-20T20:48:59.978Z,4.43
2018-07-20T20:51:29.357Z,4.93
2018-07-20T20:53:58.028Z,4.80
2018-07-20T20:56:26.686Z,4.93
2018-07-20T20:58:55.386Z,4.90
2018-07-20T21:01:23.992Z,5.07
2018-07-20T21:03:52.468Z,5.07
2018-07-20T21:06:21.129Z,5.83
2018-07-20T21:08:49.751Z,5.03
2018-07-20T21:11:18.217Z,5.43
2018-07-20T21:13:46.838Z,5.70
2018-07-20T21:16:15.826Z,5.33
2018-07-20T21:18:44.638Z,5.27
2018-07-20T21:21:13.300Z,5.40
2018-07-20T21:23:41.963Z,5.87
2018-07-20T21:26:10.674Z,6.37
2018-07-20T21:28:39.291Z,5.73
2018-07-20T21:31:08.096Z,5.93
2018-07-20T21:33:36.740Z,5.90
2018-07-20T21:36:05.467Z,6.10
2018-07-20T21:38:34.108Z,6.20
2018-07-20T21:41:03.066Z,6.20
2018-07-20T21:43:31.542Z,5.80
2018-07-20T21:46:00.331Z,5.47
2018-07-20T21:48:28.960Z,6.00
2018-07-20T21:50:57.656Z,5.80
2018-07-20T21:53:26.316Z,5.70
2018-07-20T21:55:55.093Z,5.50
2018-07-20T21:58:23.780Z,5.77
2018-07-20T22:00:52.568Z,5.53
2018-07-20T22:03:21.262Z,5.53
2018-07-20T22:05:49.901Z,5.90
2018-07-20T22:08:18.598Z,5.60
2018-07-20T22:10:47.221Z,5.53
2018-07-20T22:13:15.888Z,5.73
2018-07-20T22:15:44.518Z,6.20
2018-07-20T22:18:13.158Z,5.60
2018-07-20T22:20:41.747Z,5.83
2018-07-20T22:23:10.381Z,5.77
2018-07-20T22:25:39.036Z,6.13
2018-07-20T22:28:07.680Z,5.90
2018-07-20T22:30:36.101Z,5.83
2018-07-20T22:33:04.896Z,5.90
2018-07-20T22:35:33.534Z,6.27
2018-07-20T22:38:01.939Z,6.20
2018-07-20T22:40:30.609Z,5.70
2018-07-20T22:42:59.243Z,5.80
2018-07-20T22:45:27.918Z,6.40
2018-07-20T22:47:56.571Z,6.40
2018-07-20T22:50:27.855Z,6.10
2018-07-20T22:52:56.491Z,6.03
2018-07-20T22:55:25.177Z,6.30
2018-07-20T22:57:54.020Z,6.03
2018-07-20T23:00:22.635Z,5.90
2018-07-20T23:02:51.322Z,6.00
2018-07-20T23:05:20.009Z,6.83
2018-07-20T23:07:48.658Z,6.10
2018-07-20T23:10:17.295Z,6.37
2018-07-20T23:12:45.959Z,6.90
2018-07-20T23:15:15.626Z,6.33
2018-07-20T23:17:44.405Z,6.17
2018-07-20T23:20:13.118Z,6.30
2018-07-20T23:22:42.801Z,6.30
2018-07-20T23:25:11.483Z,6.43
2018-07-20T23:27:40.139Z,6.27
2018-07-20T23:30:08.846Z,6.00
2018-07-20T23:32:37.461Z,5.83
2018-07-20T23:35:06.483Z,5.90
2018-07-20T23:37:35.776Z,6.43
2018-07-20T23:40:04.938Z,6.37
2018-07-20T23:42:33.691Z,6.63
2018-07-20T23:45:02.436Z,6.47
2018-07-20T23:47:31.080Z,6.33
2018-07-20T23:49:59.773Z,6.43
2018-07-20T23:52:28.525Z,6.50
2018-07-20T23:54:57.172Z,6.77
2018-07-20T23:57:25.903Z,6.50
2018-07-20T23:59:54.498Z,6.80
